sensor_id;sensor_type;location;lat;lon;timestamp;P1;durP1;ratioP1;P2;durP2;ratioP2
12792;SDS011;6460;42.684;23.260;2023-12-22T00:00:11;50.37;;;29.47;;
12792;SDS011;6460;42.684;23.260;2023-12-22T00:02:39;51.63;;;31.77;;
12792;SDS011;6460;42.684;23.260;2023-12-22T00:05:07;55.97;;;33.70;;
12792;SDS011;6460;42.684;23.260;2023-12-22T00:07:37;54.90;;;34.27;;
12792;SDS011;6460;42.684;23.260;2023-12-22T00:10:05;55.20;;;34.40;;
12792;SDS011;6460;42.684;23.260;2023-12-22T00:12:34;56.47;;;34.60;;
12792;SDS011;6460;42.684;23.260;2023-12-22T00:15:04;58.37;;;34.27;;
12792;SDS011;6460;42.684;23.260;2023-12-22T00:17:32;58.37;;;35.57;;
12792;SDS011;6460;42.684;23.260;2023-12-22T00:20:00;59.47;;;33.97;;
12792;SDS011;6460;42.684;23.260;2023-12-22T00:22:28;56.57;;;33.60;;
12792;SDS011;6460;42.684;23.260;2023-12-22T00:24:58;53.33;;;32.90;;
12792;SDS011;6460;42.684;23.260;2023-12-22T00:27:26;51.60;;;33.10;;
12792;SDS011;6460;42.684;23.260;2023-12-22T00:29:54;56.37;;;31.30;;
12792;SDS011;6460;42.684;23.260;2023-12-22T00:32:21;56.50;;;32.87;;
12792;SDS011;6460;42.684;23.260;2023-12-22T00:34:49;53.07;;;31.60;;
12792;SDS011;6460;42.684;23.260;2023-12-22T00:37:17;50.40;;;31.50;;
12792;SDS011;6460;42.684;23.260;2023-12-22T00:42:33;45.67;;;29.20;;
12792;SDS011;6460;42.684;23.260;2023-12-22T00:45:01;42.80;;;27.33;;
12792;SDS011;6460;42.684;23.260;2023-12-22T00:47:29;40.80;;;25.53;;
12792;SDS011;6460;42.684;23.260;2023-12-22T00:50:00;38.03;;;24.73;;
12792;SDS011;6460;42.684;23.260;2023-12-22T00:52:29;43.23;;;26.90;;
12792;SDS011;6460;42.684;23.260;2023-12-22T00:54:57;37.13;;;23.20;;
12792;SDS011;6460;42.684;23.260;2023-12-22T00:57:27;33.97;;;22.57;;
12792;SDS011;6460;42.684;23.260;2023-12-22T00:59:55;34.17;;;22.73;;
12792;SDS011;6460;42.684;23.260;2023-12-22T01:02:23;38.53;;;24.30;;
12792;SDS011;6460;42.684;23.260;2023-12-22T01:04:51;37.50;;;23.23;;
12792;SDS011;6460;42.684;23.260;2023-12-22T01:07:19;36.90;;;22.27;;
12792;SDS011;6460;42.684;23.260;2023-12-22T01:09:47;33.80;;;20.33;;
12792;SDS011;6460;42.684;23.260;2023-12-22T01:12:15;32.70;;;20.87;;
12792;SDS011;6460;42.684;23.260;2023-12-22T01:14:44;29.80;;;19.80;;
12792;SDS011;6460;42.684;23.260;2023-12-22T01:17:12;33.73;;;19.93;;
12792;SDS011;6460;42.684;23.260;2023-12-22T01:19:40;30.73;;;20.43;;
12792;SDS011;6460;42.684;23.260;2023-12-22T01:22:08;29.67;;;19.60;;
12792;SDS011;6460;42.684;23.260;2023-12-22T01:24:36;29.07;;;18.83;;
12792;SDS011;6460;42.684;23.260;2023-12-22T01:27:08;31.47;;;19.67;;
12792;SDS011;6460;42.684;23.260;2023-12-22T01:29:36;29.33;;;18.90;;
12792;SDS011;6460;42.684;23.260;2023-12-22T01:32:06;30.27;;;19.10;;
12792;SDS011;6460;42.684;23.260;2023-12-22T01:34:34;29.07;;;18.63;;
12792;SDS011;6460;42.684;23.260;2023-12-22T01:37:02;31.97;;;18.60;;
12792;SDS011;6460;42.684;23.260;2023-12-22T01:39:30;28.07;;;17.60;;
12792;SDS011;6460;42.684;23.260;2023-12-22T01:41:58;24.90;;;13.17;;
12792;SDS011;6460;42.684;23.260;2023-12-22T01:44:26;27.83;;;18.67;;
12792;SDS011;6460;42.684;23.260;2023-12-22T01:46:54;27.20;;;16.90;;
12792;SDS011;6460;42.684;23.260;2023-12-22T01:49:24;27.67;;;15.93;;
12792;SDS011;6460;42.684;23.260;2023-12-22T01:51:52;24.73;;;16.93;;
12792;SDS011;6460;42.684;23.260;2023-12-22T01:54:20;27.73;;;17.17;;
12792;SDS011;6460;42.684;23.260;2023-12-22T01:56:48;28.13;;;17.47;;
12792;SDS011;6460;42.684;23.260;2023-12-22T01:59:17;26.93;;;17.87;;
12792;SDS011;6460;42.684;23.260;2023-12-22T02:01:45;24.90;;;16.50;;
12792;SDS011;6460;42.684;23.260;2023-12-22T02:04:14;27.37;;;16.67;;
12792;SDS011;6460;42.684;23.260;2023-12-22T02:06:43;26.90;;;17.40;;
12792;SDS011;6460;42.684;23.260;2023-12-22T02:09:11;24.00;;;16.33;;
12792;SDS011;6460;42.684;23.260;2023-12-22T02:11:38;23.00;;;15.80;;
12792;SDS011;6460;42.684;23.260;2023-12-22T02:14:06;23.00;;;16.07;;
12792;SDS011;6460;42.684;23.260;2023-12-22T02:16:36;27.10;;;16.43;;
12792;SDS011;6460;42.684;23.260;2023-12-22T02:19:10;21.80;;;15.37;;
12792;SDS011;6460;42.684;23.260;2023-12-22T02:24:40;24.83;;;16.27;;
12792;SDS011;6460;42.684;23.260;2023-12-22T02:27:10;26.50;;;16.43;;
12792;SDS011;6460;42.684;23.260;2023-12-22T02:29:49;24.40;;;16.53;;
12792;SDS011;6460;42.684;23.260;2023-12-22T02:32:21;29.27;;;18.77;;
12792;SDS011;6460;42.684;23.260;2023-12-22T02:34:50;30.63;;;18.63;;
12792;SDS011;6460;42.684;23.260;2023-12-22T02:37:20;30.07;;;18.70;;
12792;SDS011;6460;42.684;23.260;2023-12-22T02:39:52;27.13;;;17.33;;
12792;SDS011;6460;42.684;23.260;2023-12-22T02:42:20;27.70;;;16.93;;
12792;SDS011;6460;42.684;23.260;2023-12-22T02:44:56;25.73;;;16.20;;
12792;SDS011;6460;42.684;23.260;2023-12-22T02:47:23;25.47;;;16.07;;
12792;SDS011;6460;42.684;23.260;2023-12-22T02:49:53;27.30;;;16.70;;
12792;SDS011;6460;42.684;23.260;2023-12-22T02:52:20;23.97;;;16.27;;
12792;SDS011;6460;42.684;23.260;2023-12-22T02:54:48;24.73;;;16.03;;
12792;SDS011;6460;42.684;23.260;2023-12-22T02:57:16;23.80;;;16.27;;
12792;SDS011;6460;42.684;23.260;2023-12-22T02:59:44;26.40;;;15.87;;
12792;SDS011;6460;42.684;23.260;2023-12-22T03:02:11;25.67;;;16.37;;
12792;SDS011;6460;42.684;23.260;2023-12-22T03:04:39;25.33;;;16.47;;
12792;SDS011;6460;42.684;23.260;2023-12-22T03:07:07;25.10;;;16.37;;
12792;SDS011;6460;42.684;23.260;2023-12-22T03:09:34;28.67;;;16.53;;
12792;SDS011;6460;42.684;23.260;2023-12-22T03:12:02;23.80;;;15.43;;
12792;SDS011;6460;42.684;23.260;2023-12-22T03:14:32;25.43;;;15.17;;
12792;SDS011;6460;42.684;23.260;2023-12-22T03:17:00;25.03;;;16.73;;
12792;SDS011;6460;42.684;23.260;2023-12-22T03:19:29;26.70;;;16.23;;
12792;SDS011;6460;42.684;23.260;2023-12-22T03:21:57;25.37;;;16.57;;
12792;SDS011;6460;42.684;23.260;2023-12-22T03:24:25;26.33;;;15.77;;
12792;SDS011;6460;42.684;23.260;2023-12-22T03:26:54;27.50;;;17.03;;
12792;SDS011;6460;42.684;23.260;2023-12-22T03:29:22;28.40;;;16.83;;
12792;SDS011;6460;42.684;23.260;2023-12-22T03:31:51;25.00;;;16.90;;
12792;SDS011;6460;42.684;23.260;2023-12-22T03:34:18;27.13;;;17.20;;
12792;SDS011;6460;42.684;23.260;2023-12-22T03:36:46;26.53;;;18.40;;
12792;SDS011;6460;42.684;23.260;2023-12-22T03:39:15;29.40;;;18.23;;
12792;SDS011;6460;42.684;23.260;2023-12-22T03:41:42;31.30;;;18.40;;
12792;SDS011;6460;42.684;23.260;2023-12-22T03:44:09;25.70;;;17.23;;
12792;SDS011;6460;42.684;23.260;2023-12-22T03:46:37;26.90;;;17.33;;
12792;SDS011;6460;42.684;23.260;2023-12-22T03:49:06;30.27;;;19.20;;
12792;SDS011;6460;42.684;23.260;2023-12-22T03:51:34;31.00;;;19.07;;
12792;SDS011;6460;42.684;23.260;2023-12-22T03:54:03;31.73;;;19.73;;
12792;SDS011;6460;42.684;23.260;2023-12-22T03:56:31;29.57;;;19.43;;
12792;SDS011;6460;42.684;23.260;2023-12-22T03:58:59;29.20;;;19.30;;
12792;SDS011;6460;42.684;23.260;2023-12-22T04:01:27;27.53;;;19.30;;
12792;SDS011;6460;42.684;23.260;2023-12-22T04:03:55;29.23;;;18.53;;
12792;SDS011;6460;42.684;23.260;2023-12-22T04:06:24;28.67;;;18.80;;
12792;SDS011;6460;42.684;23.260;2023-12-22T04:08:52;27.47;;;17.93;;
12792;SDS011;6460;42.684;23.260;2023-12-22T04:11:20;29.07;;;18.00;;
12792;SDS011;6460;42.684;23.260;2023-12-22T04:13:48;27.40;;;18.07;;
12792;SDS011;6460;42.684;23.260;2023-12-22T04:16:16;26.73;;;18.13;;
12792;SDS011;6460;42.684;23.260;2023-12-22T04:18:44;27.20;;;18.50;;
12792;SDS011;6460;42.684;23.260;2023-12-22T04:21:12;28.60;;;18.13;;
12792;SDS011;6460;42.684;23.260;2023-12-22T04:23:41;28.23;;;18.13;;
12792;SDS011;6460;42.684;23.260;2023-12-22T04:26:08;30.97;;;18.70;;
12792;SDS011;6460;42.684;23.260;2023-12-22T04:28:36;31.23;;;19.03;;
12792;SDS011;6460;42.684;23.260;2023-12-22T04:31:03;27.30;;;18.73;;
12792;SDS011;6460;42.684;23.260;2023-12-22T04:33:31;27.07;;;17.57;;
12792;SDS011;6460;42.684;23.260;2023-12-22T04:35:59;26.10;;;16.90;;
12792;SDS011;6460;42.684;23.260;2023-12-22T04:38:27;24.70;;;16.37;;
12792;SDS011;6460;42.684;23.260;2023-12-22T04:40:56;25.30;;;17.23;;
12792;SDS011;6460;42.684;23.260;2023-12-22T04:43:23;28.50;;;17.50;;
12792;SDS011;6460;42.684;23.260;2023-12-22T04:45:51;26.60;;;16.07;;
12792;SDS011;6460;42.684;23.260;2023-12-22T04:48:19;22.50;;;15.67;;
12792;SDS011;6460;42.684;23.260;2023-12-22T04:50:47;26.50;;;15.67;;
12792;SDS011;6460;42.684;23.260;2023-12-22T04:53:14;26.80;;;17.73;;
12792;SDS011;6460;42.684;23.260;2023-12-22T04:55:41;25.67;;;16.30;;
12792;SDS011;6460;42.684;23.260;2023-12-22T04:58:10;24.90;;;17.17;;
12792;SDS011;6460;42.684;23.260;2023-12-22T05:00:37;25.87;;;16.47;;
12792;SDS011;6460;42.684;23.260;2023-12-22T05:03:05;27.00;;;17.40;;
12792;SDS011;6460;42.684;23.260;2023-12-22T05:05:32;24.57;;;17.17;;
12792;SDS011;6460;42.684;23.260;2023-12-22T05:08:00;28.00;;;17.20;;
12792;SDS011;6460;42.684;23.260;2023-12-22T05:10:28;31.53;;;19.93;;
12792;SDS011;6460;42.684;23.260;2023-12-22T05:12:56;23.67;;;16.77;;
12792;SDS011;6460;42.684;23.260;2023-12-22T05:15:24;25.90;;;17.53;;
12792;SDS011;6460;42.684;23.260;2023-12-22T05:17:52;18.37;;;11.57;;
12792;SDS011;6460;42.684;23.260;2023-12-22T05:20:19;17.23;;;11.67;;
12792;SDS011;6460;42.684;23.260;2023-12-22T05:22:46;18.80;;;13.00;;
12792;SDS011;6460;42.684;23.260;2023-12-22T05:25:14;6.60;;;5.47;;
12792;SDS011;6460;42.684;23.260;2023-12-22T05:27:41;8.27;;;6.20;;
12792;SDS011;6460;42.684;23.260;2023-12-22T05:30:09;4.57;;;2.60;;
12792;SDS011;6460;42.684;23.260;2023-12-22T05:32:40;1.53;;;1.40;;
12792;SDS011;6460;42.684;23.260;2023-12-22T05:35:08;2.10;;;1.90;;
12792;SDS011;6460;42.684;23.260;2023-12-22T05:37:37;1.67;;;1.53;;
12792;SDS011;6460;42.684;23.260;2023-12-22T05:40:05;2.47;;;1.83;;
12792;SDS011;6460;42.684;23.260;2023-12-22T05:42:35;2.33;;;1.90;;
12792;SDS011;6460;42.684;23.260;2023-12-22T05:45:03;2.57;;;1.63;;
12792;SDS011;6460;42.684;23.260;2023-12-22T05:47:32;3.67;;;1.80;;
12792;SDS011;6460;42.684;23.260;2023-12-22T05:50:01;2.37;;;2.00;;
12792;SDS011;6460;42.684;23.260;2023-12-22T05:52:29;2.10;;;1.90;;
12792;SDS011;6460;42.684;23.260;2023-12-22T05:54:57;2.77;;;1.77;;
12792;SDS011;6460;42.684;23.260;2023-12-22T05:57:25;1.70;;;1.50;;
12792;SDS011;6460;42.684;23.260;2023-12-22T05:59:53;1.93;;;1.53;;
12792;SDS011;6460;42.684;23.260;2023-12-22T06:02:21;2.13;;;1.40;;
12792;SDS011;6460;42.684;23.260;2023-12-22T06:04:49;1.87;;;1.70;;
12792;SDS011;6460;42.684;23.260;2023-12-22T06:07:18;2.07;;;1.60;;
12792;SDS011;6460;42.684;23.260;2023-12-22T06:09:46;2.50;;;1.97;;
12792;SDS011;6460;42.684;23.260;2023-12-22T06:12:14;2.20;;;2.00;;
12792;SDS011;6460;42.684;23.260;2023-12-22T06:14:42;3.27;;;2.77;;
12792;SDS011;6460;42.684;23.260;2023-12-22T06:17:10;2.30;;;2.10;;
12792;SDS011;6460;42.684;23.260;2023-12-22T06:19:38;19.30;;;12.00;;
12792;SDS011;6460;42.684;23.260;2023-12-22T06:22:06;24.77;;;13.43;;
12792;SDS011;6460;42.684;23.260;2023-12-22T06:24:35;20.37;;;14.10;;
12792;SDS011;6460;42.684;23.260;2023-12-22T06:27:03;20.83;;;13.80;;
12792;SDS011;6460;42.684;23.260;2023-12-22T06:29:32;21.57;;;15.70;;
12792;SDS011;6460;42.684;23.260;2023-12-22T06:32:00;18.17;;;13.80;;
12792;SDS011;6460;42.684;23.260;2023-12-22T06:34:31;19.17;;;12.80;;
12792;SDS011;6460;42.684;23.260;2023-12-22T06:36:59;19.73;;;13.13;;
12792;SDS011;6460;42.684;23.260;2023-12-22T06:39:26;19.70;;;12.77;;
12792;SDS011;6460;42.684;23.260;2023-12-22T06:41:56;19.17;;;13.93;;
12792;SDS011;6460;42.684;23.260;2023-12-22T06:44:24;17.80;;;13.27;;
12792;SDS011;6460;42.684;23.260;2023-12-22T06:46:52;18.83;;;12.70;;
12792;SDS011;6460;42.684;23.260;2023-12-22T06:49:20;17.83;;;13.27;;
12792;SDS011;6460;42.684;23.260;2023-12-22T06:51:48;24.43;;;14.07;;
12792;SDS011;6460;42.684;23.260;2023-12-22T06:54:16;11.50;;;7.50;;
12792;SDS011;6460;42.684;23.260;2023-12-22T06:56:44;4.70;;;4.00;;
12792;SDS011;6460;42.684;23.260;2023-12-22T06:59:14;17.87;;;11.57;;
12792;SDS011;6460;42.684;23.260;2023-12-22T07:01:42;19.17;;;13.43;;
12792;SDS011;6460;42.684;23.260;2023-12-22T07:04:09;17.53;;;12.73;;
12792;SDS011;6460;42.684;23.260;2023-12-22T07:06:37;16.03;;;12.87;;
12792;SDS011;6460;42.684;23.260;2023-12-22T07:11:55;22.63;;;15.13;;
12792;SDS011;6460;42.684;23.260;2023-12-22T07:14:25;21.80;;;14.03;;
12792;SDS011;6460;42.684;23.260;2023-12-22T07:16:52;23.63;;;15.10;;
12792;SDS011;6460;42.684;23.260;2023-12-22T07:19:19;23.80;;;17.30;;
12792;SDS011;6460;42.684;23.260;2023-12-22T07:21:48;23.10;;;16.37;;
12792;SDS011;6460;42.684;23.260;2023-12-22T07:24:16;22.80;;;16.10;;
12792;SDS011;6460;42.684;23.260;2023-12-22T07:26:44;23.47;;;17.20;;
12792;SDS011;6460;42.684;23.260;2023-12-22T07:29:12;25.53;;;17.77;;
12792;SDS011;6460;42.684;23.260;2023-12-22T07:31:42;25.60;;;16.47;;
12792;SDS011;6460;42.684;23.260;2023-12-22T07:34:10;27.80;;;17.10;;
12792;SDS011;6460;42.684;23.260;2023-12-22T07:36:37;26.23;;;17.20;;
12792;SDS011;6460;42.684;23.260;2023-12-22T07:39:04;24.57;;;15.40;;
12792;SDS011;6460;42.684;23.260;2023-12-22T07:41:32;27.50;;;16.03;;
12792;SDS011;6460;42.684;23.260;2023-12-22T07:43:59;22.03;;;15.70;;
12792;SDS011;6460;42.684;23.260;2023-12-22T07:46:26;24.70;;;16.67;;
12792;SDS011;6460;42.684;23.260;2023-12-22T07:48:55;23.23;;;16.93;;
12792;SDS011;6460;42.684;23.260;2023-12-22T07:51:23;28.53;;;18.37;;
12792;SDS011;6460;42.684;23.260;2023-12-22T07:53:50;29.70;;;19.87;;
12792;SDS011;6460;42.684;23.260;2023-12-22T07:56:18;25.47;;;17.63;;
12792;SDS011;6460;42.684;23.260;2023-12-22T07:58:45;24.73;;;17.47;;
12792;SDS011;6460;42.684;23.260;2023-12-22T08:01:12;32.73;;;19.40;;
12792;SDS011;6460;42.684;23.260;2023-12-22T08:03:40;28.53;;;18.40;;
12792;SDS011;6460;42.684;23.260;2023-12-22T08:06:09;26.83;;;17.40;;
12792;SDS011;6460;42.684;23.260;2023-12-22T08:08:36;27.70;;;17.47;;
12792;SDS011;6460;42.684;23.260;2023-12-22T08:11:03;21.53;;;13.53;;
12792;SDS011;6460;42.684;23.260;2023-12-22T08:13:30;24.10;;;15.13;;
12792;SDS011;6460;42.684;23.260;2023-12-22T08:15:57;21.07;;;15.07;;
12792;SDS011;6460;42.684;23.260;2023-12-22T08:18:24;22.10;;;15.30;;
12792;SDS011;6460;42.684;23.260;2023-12-22T08:20:52;21.80;;;15.63;;
12792;SDS011;6460;42.684;23.260;2023-12-22T08:23:20;21.37;;;14.97;;
12792;SDS011;6460;42.684;23.260;2023-12-22T08:25:48;24.47;;;16.17;;
12792;SDS011;6460;42.684;23.260;2023-12-22T08:28:15;37.33;;;21.73;;
12792;SDS011;6460;42.684;23.260;2023-12-22T08:30:42;27.13;;;17.77;;
12792;SDS011;6460;42.684;23.260;2023-12-22T08:33:09;25.37;;;17.00;;
12792;SDS011;6460;42.684;23.260;2023-12-22T08:35:37;29.80;;;19.10;;
12792;SDS011;6460;42.684;23.260;2023-12-22T08:38:04;26.33;;;17.10;;
12792;SDS011;6460;42.684;23.260;2023-12-22T08:40:33;25.47;;;18.10;;
12792;SDS011;6460;42.684;23.260;2023-12-22T08:43:00;25.50;;;17.73;;
12792;SDS011;6460;42.684;23.260;2023-12-22T08:45:28;30.20;;;19.80;;
12792;SDS011;6460;42.684;23.260;2023-12-22T08:47:55;30.43;;;19.73;;
12792;SDS011;6460;42.684;23.260;2023-12-22T08:50:23;27.93;;;19.27;;
12792;SDS011;6460;42.684;23.260;2023-12-22T08:52:50;26.17;;;17.93;;
12792;SDS011;6460;42.684;23.260;2023-12-22T08:55:18;26.23;;;17.40;;
12792;SDS011;6460;42.684;23.260;2023-12-22T08:57:46;26.30;;;19.60;;
12792;SDS011;6460;42.684;23.260;2023-12-22T09:00:14;31.03;;;21.43;;
12792;SDS011;6460;42.684;23.260;2023-12-22T09:02:41;31.70;;;22.33;;
12792;SDS011;6460;42.684;23.260;2023-12-22T09:05:09;30.73;;;22.10;;
12792;SDS011;6460;42.684;23.260;2023-12-22T09:07:36;40.20;;;26.77;;
12792;SDS011;6460;42.684;23.260;2023-12-22T09:10:04;40.07;;;30.47;;
12792;SDS011;6460;42.684;23.260;2023-12-22T09:12:32;39.10;;;29.53;;
12792;SDS011;6460;42.684;23.260;2023-12-22T09:15:00;43.27;;;31.97;;
12792;SDS011;6460;42.684;23.260;2023-12-22T09:17:29;37.00;;;30.20;;
12792;SDS011;6460;42.684;23.260;2023-12-22T09:19:56;41.97;;;30.53;;
12792;SDS011;6460;42.684;23.260;2023-12-22T09:22:23;19.30;;;12.70;;
12792;SDS011;6460;42.684;23.260;2023-12-22T09:24:50;21.97;;;10.70;;
12792;SDS011;6460;42.684;23.260;2023-12-22T09:27:17;14.43;;;9.17;;
12792;SDS011;6460;42.684;23.260;2023-12-22T09:29:45;13.17;;;9.10;;
12792;SDS011;6460;42.684;23.260;2023-12-22T09:32:14;10.77;;;7.53;;
12792;SDS011;6460;42.684;23.260;2023-12-22T09:34:42;7.70;;;5.03;;
12792;SDS011;6460;42.684;23.260;2023-12-22T09:37:09;5.73;;;4.07;;
12792;SDS011;6460;42.684;23.260;2023-12-22T09:39:36;7.77;;;4.60;;
12792;SDS011;6460;42.684;23.260;2023-12-22T09:42:04;5.77;;;4.30;;
12792;SDS011;6460;42.684;23.260;2023-12-22T09:44:32;6.20;;;4.07;;
12792;SDS011;6460;42.684;23.260;2023-12-22T09:47:00;4.17;;;3.30;;
12792;SDS011;6460;42.684;23.260;2023-12-22T09:49:32;4.97;;;3.70;;
12792;SDS011;6460;42.684;23.260;2023-12-22T09:52:01;3.57;;;3.20;;
12792;SDS011;6460;42.684;23.260;2023-12-22T09:54:30;5.20;;;3.43;;
12792;SDS011;6460;42.684;23.260;2023-12-22T09:56:58;5.23;;;4.33;;
12792;SDS011;6460;42.684;23.260;2023-12-22T09:59:26;6.73;;;5.03;;
12792;SDS011;6460;42.684;23.260;2023-12-22T10:01:55;6.40;;;5.47;;
12792;SDS011;6460;42.684;23.260;2023-12-22T10:04:23;6.13;;;3.90;;
12792;SDS011;6460;42.684;23.260;2023-12-22T10:06:52;5.93;;;3.40;;
12792;SDS011;6460;42.684;23.260;2023-12-22T10:09:25;3.60;;;3.00;;
12792;SDS011;6460;42.684;23.260;2023-12-22T10:11:53;4.13;;;3.30;;
12792;SDS011;6460;42.684;23.260;2023-12-22T10:14:21;8.77;;;4.93;;
12792;SDS011;6460;42.684;23.260;2023-12-22T10:16:50;6.87;;;4.30;;
12792;SDS011;6460;42.684;23.260;2023-12-22T10:19:18;6.17;;;4.20;;
12792;SDS011;6460;42.684;23.260;2023-12-22T10:21:46;7.57;;;4.23;;
12792;SDS011;6460;42.684;23.260;2023-12-22T10:27:12;7.53;;;5.87;;
12792;SDS011;6460;42.684;23.260;2023-12-22T10:29:41;6.80;;;5.67;;
12792;SDS011;6460;42.684;23.260;2023-12-22T10:32:09;8.90;;;6.60;;
12792;SDS011;6460;42.684;23.260;2023-12-22T10:34:36;8.73;;;6.40;;
12792;SDS011;6460;42.684;23.260;2023-12-22T10:37:03;7.33;;;6.13;;
12792;SDS011;6460;42.684;23.260;2023-12-22T10:39:31;5.80;;;4.30;;
12792;SDS011;6460;42.684;23.260;2023-12-22T10:42:00;6.13;;;3.20;;
12792;SDS011;6460;42.684;23.260;2023-12-22T10:44:28;4.67;;;2.87;;
12792;SDS011;6460;42.684;23.260;2023-12-22T10:46:56;2.83;;;2.53;;
12792;SDS011;6460;42.684;23.260;2023-12-22T10:49:24;4.53;;;2.53;;
12792;SDS011;6460;42.684;23.260;2023-12-22T10:51:52;3.93;;;1.40;;
12792;SDS011;6460;42.684;23.260;2023-12-22T10:54:19;2.33;;;1.77;;
12792;SDS011;6460;42.684;23.260;2023-12-22T10:56:47;2.20;;;1.40;;
12792;SDS011;6460;42.684;23.260;2023-12-22T10:59:17;1.80;;;1.43;;
12792;SDS011;6460;42.684;23.260;2023-12-22T11:01:45;2.40;;;1.73;;
12792;SDS011;6460;42.684;23.260;2023-12-22T11:04:20;1.50;;;1.20;;
12792;SDS011;6460;42.684;23.260;2023-12-22T11:06:49;2.07;;;1.70;;
12792;SDS011;6460;42.684;23.260;2023-12-22T11:09:18;2.23;;;1.63;;
12792;SDS011;6460;42.684;23.260;2023-12-22T11:11:51;2.20;;;1.67;;
12792;SDS011;6460;42.684;23.260;2023-12-22T11:14:21;1.40;;;1.30;;
12792;SDS011;6460;42.684;23.260;2023-12-22T11:16:49;2.13;;;1.93;;
12792;SDS011;6460;42.684;23.260;2023-12-22T11:19:19;6.40;;;3.13;;
12792;SDS011;6460;42.684;23.260;2023-12-22T11:21:49;3.10;;;1.63;;
12792;SDS011;6460;42.684;23.260;2023-12-22T11:24:18;1.80;;;1.50;;
12792;SDS011;6460;42.684;23.260;2023-12-22T11:26:47;1.60;;;1.33;;
12792;SDS011;6460;42.684;23.260;2023-12-22T11:29:18;1.70;;;1.40;;
12792;SDS011;6460;42.684;23.260;2023-12-22T11:31:48;1.70;;;1.60;;
12792;SDS011;6460;42.684;23.260;2023-12-22T11:34:19;1.70;;;1.40;;
12792;SDS011;6460;42.684;23.260;2023-12-22T11:36:47;1.80;;;1.50;;
12792;SDS011;6460;42.684;23.260;2023-12-22T11:39:16;1.10;;;1.00;;
12792;SDS011;6460;42.684;23.260;2023-12-22T11:41:44;2.00;;;1.23;;
12792;SDS011;6460;42.684;23.260;2023-12-22T11:44:14;1.57;;;1.10;;
12792;SDS011;6460;42.684;23.260;2023-12-22T11:46:41;3.77;;;1.33;;
12792;SDS011;6460;42.684;23.260;2023-12-22T11:49:10;1.20;;;1.10;;
12792;SDS011;6460;42.684;23.260;2023-12-22T11:51:38;1.23;;;1.13;;
12792;SDS011;6460;42.684;23.260;2023-12-22T11:57:06;2.10;;;1.67;;
12792;SDS011;6460;42.684;23.260;2023-12-22T11:59:57;1.40;;;1.23;;
12792;SDS011;6460;42.684;23.260;2023-12-22T12:02:25;2.03;;;1.20;;
12792;SDS011;6460;42.684;23.260;2023-12-22T12:04:56;1.37;;;1.20;;
12792;SDS011;6460;42.684;23.260;2023-12-22T12:07:44;2.17;;;1.40;;
12792;SDS011;6460;42.684;23.260;2023-12-22T12:10:13;1.80;;;1.50;;
12792;SDS011;6460;42.684;23.260;2023-12-22T12:13:05;1.30;;;1.00;;
12792;SDS011;6460;42.684;23.260;2023-12-22T12:15:33;1.77;;;1.30;;
12792;SDS011;6460;42.684;23.260;2023-12-22T12:18:01;2.50;;;1.80;;
12792;SDS011;6460;42.684;23.260;2023-12-22T12:20:30;1.80;;;1.50;;
12792;SDS011;6460;42.684;23.260;2023-12-22T12:22:58;1.50;;;1.23;;
12792;SDS011;6460;42.684;23.260;2023-12-22T12:25:28;1.30;;;1.20;;
12792;SDS011;6460;42.684;23.260;2023-12-22T12:28:02;2.13;;;1.47;;
12792;SDS011;6460;42.684;23.260;2023-12-22T12:30:31;1.30;;;1.10;;
12792;SDS011;6460;42.684;23.260;2023-12-22T12:32:59;1.40;;;0.90;;
12792;SDS011;6460;42.684;23.260;2023-12-22T12:35:34;1.83;;;1.03;;
12792;SDS011;6460;42.684;23.260;2023-12-22T12:38:03;2.17;;;1.40;;
12792;SDS011;6460;42.684;23.260;2023-12-22T12:40:31;2.83;;;1.50;;
12792;SDS011;6460;42.684;23.260;2023-12-22T12:43:00;1.60;;;1.47;;
12792;SDS011;6460;42.684;23.260;2023-12-22T12:45:28;2.47;;;1.53;;
12792;SDS011;6460;42.684;23.260;2023-12-22T12:47:56;1.83;;;1.50;;
12792;SDS011;6460;42.684;23.260;2023-12-22T12:50:24;2.00;;;1.70;;
12792;SDS011;6460;42.684;23.260;2023-12-22T12:52:53;2.00;;;1.50;;
12792;SDS011;6460;42.684;23.260;2023-12-22T12:55:21;1.33;;;1.20;;
12792;SDS011;6460;42.684;23.260;2023-12-22T12:57:50;1.60;;;1.40;;
12792;SDS011;6460;42.684;23.260;2023-12-22T13:00:23;2.80;;;1.30;;
12792;SDS011;6460;42.684;23.260;2023-12-22T13:02:51;2.20;;;1.90;;
12792;SDS011;6460;42.684;23.260;2023-12-22T13:05:22;1.70;;;1.60;;
12792;SDS011;6460;42.684;23.260;2023-12-22T13:07:49;2.20;;;1.87;;
12792;SDS011;6460;42.684;23.260;2023-12-22T13:10:22;2.73;;;1.70;;
12792;SDS011;6460;42.684;23.260;2023-12-22T13:12:51;2.27;;;1.50;;
12792;SDS011;6460;42.684;23.260;2023-12-22T13:15:19;2.03;;;1.70;;
12792;SDS011;6460;42.684;23.260;2023-12-22T13:17:49;2.77;;;2.17;;
12792;SDS011;6460;42.684;23.260;2023-12-22T13:20:16;2.53;;;1.77;;
12792;SDS011;6460;42.684;23.260;2023-12-22T13:22:44;3.70;;;2.30;;
12792;SDS011;6460;42.684;23.260;2023-12-22T13:25:11;2.50;;;1.97;;
12792;SDS011;6460;42.684;23.260;2023-12-22T13:27:46;3.20;;;2.33;;
12792;SDS011;6460;42.684;23.260;2023-12-22T13:30:14;4.03;;;2.40;;
12792;SDS011;6460;42.684;23.260;2023-12-22T13:32:41;4.77;;;2.50;;
12792;SDS011;6460;42.684;23.260;2023-12-22T13:35:09;3.73;;;2.83;;
12792;SDS011;6460;42.684;23.260;2023-12-22T13:37:40;3.27;;;2.20;;
12792;SDS011;6460;42.684;23.260;2023-12-22T13:40:09;3.00;;;2.20;;
12792;SDS011;6460;42.684;23.260;2023-12-22T13:42:37;5.43;;;3.27;;
12792;SDS011;6460;42.684;23.260;2023-12-22T13:45:10;3.40;;;2.40;;
12792;SDS011;6460;42.684;23.260;2023-12-22T13:47:40;2.77;;;2.30;;
12792;SDS011;6460;42.684;23.260;2023-12-22T13:50:13;3.53;;;2.50;;
12792;SDS011;6460;42.684;23.260;2023-12-22T13:52:41;2.27;;;1.90;;
12792;SDS011;6460;42.684;23.260;2023-12-22T13:55:10;4.43;;;2.10;;
12792;SDS011;6460;42.684;23.260;2023-12-22T13:57:38;4.50;;;2.37;;
12792;SDS011;6460;42.684;23.260;2023-12-22T14:02:56;2.10;;;1.57;;
12792;SDS011;6460;42.684;23.260;2023-12-22T14:05:24;3.07;;;1.80;;
12792;SDS011;6460;42.684;23.260;2023-12-22T14:07:51;1.90;;;1.50;;
12792;SDS011;6460;42.684;23.260;2023-12-22T14:10:19;2.43;;;1.50;;
12792;SDS011;6460;42.684;23.260;2023-12-22T14:12:46;2.57;;;1.90;;
12792;SDS011;6460;42.684;23.260;2023-12-22T14:15:13;3.20;;;1.67;;
12792;SDS011;6460;42.684;23.260;2023-12-22T14:17:42;2.87;;;2.10;;
12792;SDS011;6460;42.684;23.260;2023-12-22T14:20:10;3.00;;;2.10;;
12792;SDS011;6460;42.684;23.260;2023-12-22T14:22:37;2.87;;;2.00;;
12792;SDS011;6460;42.684;23.260;2023-12-22T14:25:05;3.50;;;2.30;;
12792;SDS011;6460;42.684;23.260;2023-12-22T14:27:33;3.80;;;2.77;;
12792;SDS011;6460;42.684;23.260;2023-12-22T14:30:00;4.47;;;1.97;;
12792;SDS011;6460;42.684;23.260;2023-12-22T14:32:27;4.20;;;3.50;;
12792;SDS011;6460;42.684;23.260;2023-12-22T14:34:56;2.60;;;1.90;;
12792;SDS011;6460;42.684;23.260;2023-12-22T14:37:24;3.73;;;2.17;;
12792;SDS011;6460;42.684;23.260;2023-12-22T14:39:51;3.00;;;1.70;;
12792;SDS011;6460;42.684;23.260;2023-12-22T14:42:18;3.70;;;1.70;;
12792;SDS011;6460;42.684;23.260;2023-12-22T14:44:46;3.90;;;1.77;;
12792;SDS011;6460;42.684;23.260;2023-12-22T14:47:13;2.50;;;1.83;;
12792;SDS011;6460;42.684;23.260;2023-12-22T14:49:40;3.87;;;1.80;;
12792;SDS011;6460;42.684;23.260;2023-12-22T14:52:09;2.13;;;1.80;;
12792;SDS011;6460;42.684;23.260;2023-12-22T14:54:37;3.13;;;2.33;;
12792;SDS011;6460;42.684;23.260;2023-12-22T14:57:04;3.10;;;2.47;;